Time;durP1;ratioP1;P1;durP2;ratioP2;P2;SDS_P1;SDS_P2;PMS_P1;PMS_P2;Temp;Humidity;BMP_temperature;BMP_pressure;BME280_temperature;BME280_humidity;BME280_pressure;Samples;Min_cycle;Max_cycle;Signal;HPM_P1;HPM_P2
2023/03/31 00:04:36;;;;;;;8.27;3.83;;;13.20;99.90;;;;;;10373773;28;20626;-80
2023/03/31 00:09:39;;;;;;;5.50;3.37;;;13.20;99.90;;;;;;10349891;28;20237;-78
2023/03/31 00:14:43;;;;;;;3.47;2.93;;;13.20;99.90;;;;;;10353444;28;20246;-78
2023/03/31 00:19:48;;;;;;;5.67;2.90;;;13.20;99.90;;;;;;10364711;28;20304;-79
2023/03/31 00:24:50;;;;;;;4.47;3.00;;;13.20;99.90;;;;;;10375152;28;20257;-80
2023/03/31 00:29:54;;;;;;;4.67;3.70;;;13.30;99.90;;;;;;10371343;28;20254;-79
2023/03/31 00:34:56;;;;;;;4.60;3.03;;;13.20;99.90;;;;;;10340975;28;20665;-80
2023/03/31 00:39:58;;;;;;;5.83;3.17;;;13.10;99.90;;;;;;10380870;28;20231;-79
2023/03/31 00:45:27;;;;;;;7.27;3.27;;;13.20;99.90;;;;;;10352226;28;20228;-79
2023/03/31 00:50:34;;;;;;;6.37;3.33;;;13.20;99.90;;;;;;10348144;28;20680;-79
2023/03/31 00:55:42;;;;;;;3.73;3.00;;;13.20;99.90;;;;;;10341014;28;20215;-79
2023/03/31 01:00:47;;;;;;;5.17;3.00;;;13.30;99.90;;;;;;10357645;28;20779;-80
2023/03/31 01:05:52;;;;;;;4.70;3.80;;;13.40;99.50;;;;;;10344370;28;20299;-80
2023/03/31 01:10:57;;;;;;;5.40;3.30;;;13.40;99.80;;;;;;10352646;28;20208;-79
2023/03/31 01:16:01;;;;;;;4.47;3.20;;;13.50;99.50;;;;;;10399903;28;20579;-79
2023/03/31 01:21:58;;;;;;;5.07;3.50;;;13.50;99.30;;;;;;10367812;28;20211;-80
2023/03/31 01:27:27;;;;;;;5.23;3.33;;;13.50;99.60;;;;;;10366048;28;20284;-80
2023/03/31 01:33:04;;;;;;;7.70;3.90;;;13.50;99.70;;;;;;10368715;28;20215;-80
2023/03/31 01:38:39;;;;;;;4.30;3.57;;;13.60;99.20;;;;;;10355675;28;20298;-79
2023/03/31 01:43:47;;;;;;;5.93;3.50;;;13.50;98.90;;;;;;10347944;28;20287;-79
2023/03/31 01:48:58;;;;;;;6.37;3.30;;;13.60;99.00;;;;;;10359466;28;20577;-81
2023/03/31 01:54:07;;;;;;;4.93;3.80;;;13.50;99.50;;;;;;10359779;28;20215;-80
2023/03/31 01:59:13;;;;;;;8.23;4.43;;;13.50;98.80;;;;;;10351363;28;20721;-81
2023/03/31 02:04:20;;;;;;;10.33;3.60;;;13.50;99.40;;;;;;10360285;28;20307;-81
2023/03/31 02:09:26;;;;;;;4.00;3.60;;;13.40;99.90;;;;;;10375975;28;20239;-81
2023/03/31 02:14:32;;;;;;;7.10;3.47;;;13.40;99.90;;;;;;10344612;28;20191;-80
2023/03/31 02:19:38;;;;;;;9.63;4.13;;;13.40;99.90;;;;;;10353677;28;20227;-81
2023/03/31 02:24:42;;;;;;;6.17;3.80;;;13.30;99.90;;;;;;10376786;28;20601;-80
2023/03/31 02:29:45;;;;;;;6.03;3.93;;;13.30;99.90;;;;;;10337528;28;20216;-81
2023/03/31 02:34:48;;;;;;;5.20;3.73;;;13.20;99.90;;;;;;10360630;28;20574;-81
2023/03/31 02:39:53;;;;;;;11.93;4.70;;;13.00;99.90;;;;;;10384648;28;20717;-81
2023/03/31 02:45:03;;;;;;;5.77;3.90;;;13.00;99.90;;;;;;10345250;28;20646;-80
2023/03/31 02:50:07;;;;;;;4.77;4.17;;;12.90;99.90;;;;;;10350190;28;20255;-80
2023/03/31 02:55:36;;;;;;;6.87;4.13;;;12.90;99.90;;;;;;10357560;28;20249;-79
2023/03/31 03:00:53;;;;;;;6.03;4.10;;;12.90;99.90;;;;;;10425678;23;20589;-82
2023/03/31 03:06:04;;;;;;;3.87;3.50;;;12.90;99.90;;;;;;10413889;28;20231;-81
2023/03/31 03:11:20;;;;;;;5.53;4.27;;;12.90;99.90;;;;;;10436198;28;20741;-82
2023/03/31 03:16:27;;;;;;;4.13;3.27;;;12.90;99.90;;;;;;10422468;28;20194;-82
2023/03/31 03:21:29;;;;;;;6.50;4.17;;;12.80;99.90;;;;;;10421398;28;20502;-82
2023/03/31 03:26:34;;;;;;;5.20;3.60;;;12.80;99.90;;;;;;10422698;28;20198;-82
2023/03/31 03:31:37;;;;;;;6.27;3.73;;;12.70;99.90;;;;;;10422370;28;20627;-82
2023/03/31 03:36:39;;;;;;;4.00;3.60;;;12.60;99.90;;;;;;10421414;28;20623;-80
2023/03/31 03:41:41;;;;;;;6.40;4.60;;;12.50;99.90;;;;;;10423553;28;20393;-79
2023/03/31 03:46:45;;;;;;;4.10;3.80;;;12.50;99.90;;;;;;10420626;28;20198;-79
2023/03/31 03:51:47;;;;;;;7.10;4.27;;;12.40;99.90;;;;;;10423523;28;20246;-80
2023/03/31 03:56:49;;;;;;;4.87;4.37;;;12.40;99.90;;;;;;10426020;28;20205;-81
2023/03/31 04:01:52;;;;;;;6.17;4.47;;;12.40;99.90;;;;;;10429688;28;20227;-81
2023/03/31 04:06:54;;;;;;;11.83;4.70;;;12.40;99.90;;;;;;10429124;28;20629;-81
2023/03/31 04:11:56;;;;;;;4.97;3.30;;;12.40;99.90;;;;;;10432532;28;20215;-82
2023/03/31 04:17:01;;;;;;;5.33;4.83;;;12.30;99.90;;;;;;10446997;28;20195;-81
2023/03/31 04:22:03;;;;;;;7.33;4.80;;;12.30;99.90;;;;;;10425502;28;20206;-81
2023/03/31 04:27:06;;;;;;;6.70;5.07;;;12.20;99.90;;;;;;10425029;28;20639;-81
2023/03/31 04:32:13;;;;;;;5.33;4.90;;;12.10;99.90;;;;;;10423893;28;20214;-80
2023/03/31 04:37:15;;;;;;;7.63;5.53;;;12.10;99.90;;;;;;10424359;28;20194;-81
2023/03/31 04:42:17;;;;;;;7.43;4.83;;;12.20;99.90;;;;;;10427067;28;20238;-84
2023/03/31 04:47:21;;;;;;;8.17;5.00;;;12.30;99.90;;;;;;10426990;28;20195;-84
2023/03/31 04:52:23;;;;;;;4.07;3.77;;;12.30;99.90;;;;;;10430256;28;20187;-84
2023/03/31 04:57:25;;;;;;;6.17;5.10;;;12.30;99.90;;;;;;10428123;28;20202;-84
2023/03/31 05:02:28;;;;;;;6.00;5.40;;;12.40;99.90;;;;;;10434701;28;20206;-83
2023/03/31 05:07:30;;;;;;;7.23;5.30;;;12.50;99.90;;;;;;10467514;28;20222;-82
2023/03/31 05:12:34;;;;;;;8.23;6.63;;;12.50;99.90;;;;;;10463189;28;20190;-82
2023/03/31 05:17:38;;;;;;;8.63;6.33;;;12.50;99.90;;;;;;10452269;28;20731;-81
2023/03/31 05:22:40;;;;;;;10.30;6.13;;;12.30;99.90;;;;;;10470528;28;20213;-81
2023/03/31 05:27:42;;;;;;;9.47;7.03;;;12.10;99.90;;;;;;10465532;28;20749;-83
2023/03/31 05:32:46;;;;;;;10.63;7.77;;;12.00;99.90;;;;;;10468260;28;20194;-83
2023/03/31 05:37:48;;;;;;;10.80;8.47;;;12.00;99.90;;;;;;10472445;28;20214;-82
2023/03/31 05:42:50;;;;;;;9.60;8.70;;;11.90;99.90;;;;;;10468973;28;20210;-81
2023/03/31 05:47:53;;;;;;;13.70;12.70;;;11.90;99.90;;;;;;10432553;28;20575;-82
2023/03/31 05:52:56;;;;;;;14.13;12.60;;;11.80;99.90;;;;;;10453291;28;20193;-83
2023/03/31 05:57:58;;;;;;;14.07;12.87;;;11.70;99.90;;;;;;10436403;28;20230;-80
2023/03/31 06:03:02;;;;;;;15.90;14.10;;;11.60;99.90;;;;;;10429496;28;20512;-82
2023/03/31 06:08:04;;;;;;;18.47;10.97;;;11.60;99.90;;;;;;10452949;28;20224;-80
2023/03/31 06:13:06;;;;;;;14.87;13.10;;;11.50;99.90;;;;;;10434915;28;20273;-81
2023/03/31 06:18:10;;;;;;;13.73;12.30;;;11.50;99.90;;;;;;10418672;28;20218;-81
2023/03/31 06:23:12;;;;;;;11.63;10.57;;;11.40;99.90;;;;;;10433156;28;20580;-81
2023/03/31 06:28:14;;;;;;;12.03;10.77;;;11.30;99.90;;;;;;10415430;28;20596;-81
2023/03/31 06:33:17;;;;;;;15.63;14.37;;;11.30;99.90;;;;;;10414462;28;20655;-81
2023/03/31 06:38:19;;;;;;;15.93;14.00;;;11.30;99.90;;;;;;10415358;28;20222;-81
2023/03/31 06:43:21;;;;;;;14.10;12.70;;;11.30;99.90;;;;;;10414933;28;20225;-81
2023/03/31 06:48:25;;;;;;;15.27;12.17;;;11.30;99.90;;;;;;10418019;28;20224;-80
2023/03/31 06:53:28;;;;;;;16.57;15.17;;;11.30;99.90;;;;;;10417469;28;20265;-81
2023/03/31 06:58:30;;;;;;;16.20;11.77;;;11.30;99.90;;;;;;10402502;28;20231;-80
2023/03/31 07:03:33;;;;;;;18.40;13.57;;;11.30;99.90;;;;;;10425168;28;20202;-81
2023/03/31 07:08:36;;;;;;;13.77;12.50;;;11.20;99.90;;;;;;10413045;28;20214;-80
2023/03/31 07:13:41;;;;;;;16.23;15.03;;;11.30;99.90;;;;;;10396087;28;20201;-80
2023/03/31 07:18:44;;;;;;;15.63;14.30;;;11.10;99.90;;;;;;10412642;28;20627;-80
2023/03/31 07:23:46;;;;;;;13.97;12.97;;;11.10;99.90;;;;;;10413531;28;20273;-80
2023/03/31 07:28:48;;;;;;;9.93;9.33;;;11.10;99.90;;;;;;10414297;28;20221;-80
2023/03/31 07:33:52;;;;;;;11.90;11.10;;;11.10;99.90;;;;;;10390689;28;20250;-80
2023/03/31 07:38:54;;;;;;;9.30;8.70;;;11.10;99.90;;;;;;10406560;28;20218;-80
2023/03/31 07:43:56;;;;;;;10.20;9.37;;;11.10;99.90;;;;;;10398501;28;20225;-80
2023/03/31 07:49:02;;;;;;;9.60;9.00;;;11.10;99.90;;;;;;10416818;28;20225;-80
2023/03/31 07:54:04;;;;;;;10.50;9.70;;;11.10;99.90;;;;;;10413846;28;20675;-80
2023/03/31 07:59:06;;;;;;;5.87;5.47;;;11.10;99.90;;;;;;10397904;28;20276;-80
2023/03/31 08:04:10;;;;;;;7.20;6.70;;;11.10;99.90;;;;;;10413906;28;20206;-80
2023/03/31 08:09:12;;;;;;;4.30;4.00;;;11.20;99.90;;;;;;10412616;28;20269;-80
2023/03/31 08:14:14;;;;;;;5.10;4.70;;;11.30;99.90;;;;;;10400772;28;20225;-81
2023/03/31 08:19:18;;;;;;;5.37;5.07;;;11.40;99.90;;;;;;10419351;28;20278;-81
2023/03/31 08:24:20;;;;;;;3.90;3.80;;;11.60;99.90;;;;;;10425043;28;20214;-80
2023/03/31 08:29:22;;;;;;;3.10;2.80;;;11.90;99.90;;;;;;10437633;28;20223;-81
2023/03/31 08:34:25;;;;;;;4.70;4.50;;;12.10;99.90;;;;;;10425305;28;20217;-81
2023/03/31 08:39:28;;;;;;;5.10;4.80;;;12.30;99.90;;;;;;10435595;28;20215;-81
2023/03/31 08:44:34;;;;;;;3.87;3.60;;;12.50;99.90;;;;;;10426778;28;20253;-81
2023/03/31 08:49:44;;;;;;;4.17;3.87;;;12.70;99.90;;;;;;10427476;28;20252;-80
2023/03/31 08:54:49;;;;;;;4.33;3.90;;;12.90;99.90;;;;;;10427264;28;20209;-81
2023/03/31 08:59:51;;;;;;;4.20;3.90;;;13.10;99.90;;;;;;10444796;28;20237;-80
2023/03/31 09:05:16;;;;;;;4.60;4.30;;;13.30;99.90;;;;;;10426072;28;20222;-81
2023/03/31 09:10:31;;;;;;;3.27;2.90;;;13.40;99.90;;;;;;10427672;28;20229;-81
2023/03/31 09:15:40;;;;;;;4.47;3.47;;;13.70;99.90;;;;;;10425803;28;20194;-81
2023/03/31 09:20:48;;;;;;;6.13;3.60;;;13.90;99.90;;;;;;10431091;28;20218;-81
2023/03/31 09:25:50;;;;;;;3.50;3.20;;;14.10;99.90;;;;;;10424019;28;20306;-81
2023/03/31 09:30:54;;;;;;;4.00;3.70;;;14.30;99.90;;;;;;10424135;28;20226;-81
2023/03/31 09:35:58;;;;;;;18.80;13.93;;;14.50;99.90;;;;;;10426050;28;20187;-81
2023/03/31 09:41:02;;;;;;;6.20;2.90;;;14.90;99.90;;;;;;10427523;28;20215;-82
2023/03/31 09:46:10;;;;;;;2.57;2.37;;;15.00;99.90;;;;;;10425228;28;20215;-82
2023/03/31 09:51:18;;;;;;;2.67;2.40;;;15.00;99.90;;;;;;10424950;28;20301;-82
2023/03/31 09:56:34;;;;;;;2.10;2.00;;;14.90;99.90;;;;;;10429158;28;20190;-82
2023/03/31 10:01:36;;;;;;;4.67;2.20;;;15.00;99.90;;;;;;10428280;28;20228;-82
2023/03/31 10:06:42;;;;;;;3.00;2.00;;;15.20;99.90;;;;;;10430923;28;20236;-82
2023/03/31 10:11:57;;;;;;;3.27;2.00;;;15.30;99.90;;;;;;10437716;28;20214;-82
2023/03/31 10:17:04;;;;;;;7.33;2.07;;;15.30;99.90;;;;;;10425732;28;20190;-82
2023/03/31 10:22:16;;;;;;;4.00;2.30;;;15.20;99.90;;;;;;10425091;28;20706;-82
2023/03/31 10:27:23;;;;;;;4.57;2.30;;;15.10;99.90;;;;;;10408434;28;20237;-81
2023/03/31 10:32:27;;;;;;;5.77;3.07;;;15.00;99.90;;;;;;10427093;28;20224;-82
2023/03/31 10:37:32;;;;;;;3.40;2.30;;;15.00;99.90;;;;;;10434488;28;20190;-81
2023/03/31 10:42:35;;;;;;;2.97;1.80;;;15.20;99.90;;;;;;10418335;28;20199;-81
2023/03/31 10:47:39;;;;;;;5.63;2.50;;;15.20;99.90;;;;;;10416081;28;20300;-80
2023/03/31 10:52:47;;;;;;;7.93;2.73;;;15.20;98.50;;;;;;10422540;28;20285;-81
2023/03/31 10:57:55;;;;;;;3.20;2.23;;;15.20;98.80;;;;;;10426685;28;20309;-81
2023/03/31 11:03:23;;;;;;;5.70;2.60;;;15.30;99.90;;;;;;10418173;28;20491;-81
2023/03/31 11:08:40;;;;;;;4.67;2.17;;;15.60;96.90;;;;;;10416579;28;20214;-81
2023/03/31 11:13:47;;;;;;;6.43;4.30;;;15.80;97.20;;;;;;10418631;28;20252;-81
2023/03/31 11:19:06;;;;;;;7.30;2.40;;;15.90;96.80;;;;;;10410098;28;20226;-81
2023/03/31 11:24:24;;;;;;;5.37;2.10;;;15.90;98.20;;;;;;10417478;28;20214;-80
2023/03/31 11:29:35;;;;;;;3.70;2.10;;;15.60;99.30;;;;;;10420258;28;20225;-80
2023/03/31 11:34:55;;;;;;;2.80;1.60;;;14.90;99.90;;;;;;10420966;28;20288;-81
2023/03/31 11:40:19;;;;;;;1.73;1.63;;;14.10;99.90;;;;;;10379226;28;20585;-79
2023/03/31 11:45:27;;;;;;;1.37;1.30;;;13.40;99.90;;;;;;10425268;28;20260;-79
2023/03/31 11:50:33;;;;;;;3.00;1.83;;;12.90;99.90;;;;;;10419082;28;20264;-80
2023/03/31 11:55:38;;;;;;;1.63;1.53;;;12.60;99.90;;;;;;10414425;28;20245;-81
2023/03/31 12:00:44;;;;;;;2.63;1.30;;;12.30;99.90;;;;;;10398059;28;20393;-79
2023/03/31 12:05:50;;;;;;;2.50;1.60;;;12.30;99.90;;;;;;10398475;28;20276;-79
2023/03/31 12:10:58;;;;;;;2.23;2.03;;;12.40;99.90;;;;;;10415416;28;20214;-81
2023/03/31 12:16:09;;;;;;;1.30;1.30;;;12.70;99.90;;;;;;10426674;28;20190;-80
2023/03/31 12:21:11;;;;;;;1.43;0.80;;;12.90;99.90;;;;;;10426405;28;20217;-80
2023/03/31 12:26:30;;;;;;;2.60;1.50;;;13.00;99.90;;;;;;10429537;28;20512;-80
2023/03/31 12:31:33;;;;;;;1.90;1.10;;;13.10;99.90;;;;;;10426696;28;20272;-80
2023/03/31 12:36:50;;;;;;;2.60;1.27;;;13.20;99.90;;;;;;10430069;28;20191;-80
2023/03/31 12:42:15;;;;;;;1.70;1.00;;;13.40;99.90;;;;;;10442996;28;20214;-80
2023/03/31 12:47:33;;;;;;;1.40;1.27;;;13.50;99.90;;;;;;10430231;28;20301;-80
2023/03/31 12:52:46;;;;;;;1.47;1.10;;;13.50;99.90;;;;;;10426460;28;20206;-80
2023/03/31 12:57:49;;;;;;;2.70;1.37;;;13.50;99.90;;;;;;10424426;28;20534;-80
2023/03/31 13:03:13;;;;;;;4.20;3.80;;;13.60;99.90;;;;;;10425203;28;20199;-81
2023/03/31 13:08:52;;;;;;;3.00;2.10;;;13.70;99.90;;;;;;10427345;28;20253;-81
2023/03/31 13:14:01;;;;;;;3.83;2.03;;;13.80;99.90;;;;;;10429346;28;20198;-80
2023/03/31 13:19:03;;;;;;;3.00;1.93;;;13.80;99.80;;;;;;10436568;28;20705;-80
2023/03/31 13:24:07;;;;;;;9.03;2.30;;;14.00;99.90;;;;;;10427440;28;20199;-81
2023/03/31 13:29:19;;;;;;;1.90;1.50;;;14.10;99.90;;;;;;10424875;28;20218;-80
2023/03/31 13:34:21;;;;;;;3.97;2.40;;;14.10;99.90;;;;;;10425451;28;20203;-81
2023/03/31 13:40:12;;;;;;;2.27;1.50;;;13.90;99.90;;;;;;10425324;28;20218;-81
2023/03/31 13:45:38;;;;;;;3.30;1.20;;;13.80;99.90;;;;;;10409965;28;20215;-81
2023/03/31 13:50:53;;;;;;;1.53;1.20;;;13.70;99.90;;;;;;10385569;28;20226;-80
2023/03/31 13:56:25;;;;;;;2.20;1.27;;;13.50;99.90;;;;;;10412477;28;20278;-81
2023/03/31 14:01:48;;;;;;;1.77;1.67;;;13.10;99.90;;;;;;10415277;28;20232;-81
2023/03/31 14:06:56;;;;;;;2.27;1.73;;;12.70;99.90;;;;;;10423087;28;20284;-80
2023/03/31 14:11:59;;;;;;;1.80;1.70;;;12.40;99.90;;;;;;10418236;28;20249;-80
2023/03/31 14:17:03;;;;;;;2.00;1.90;;;12.00;99.90;;;;;;10421786;28;20209;-80
2023/03/31 14:22:16;;;;;;;2.50;2.40;;;11.90;99.90;;;;;;10423105;28;20245;-80
2023/03/31 14:27:32;;;;;;;2.50;2.30;;;12.00;99.90;;;;;;10418873;28;20244;-81
2023/03/31 14:32:44;;;;;;;2.73;2.63;;;12.00;99.90;;;;;;10420125;28;20198;-81
2023/03/31 14:37:47;;;;;;;4.20;2.20;;;12.00;99.90;;;;;;10424156;28;20230;-81
2023/03/31 14:42:49;;;;;;;4.40;4.10;;;12.00;99.90;;;;;;10441109;28;20218;-80
2023/03/31 14:47:58;;;;;;;1.63;1.53;;;12.10;99.90;;;;;;10435170;28;20249;-80
2023/03/31 14:53:01;;;;;;;1.63;1.53;;;12.20;99.90;;;;;;10423937;28;20229;-82
2023/03/31 14:58:03;;;;;;;1.40;1.30;;;12.50;99.90;;;;;;10441847;23;20246;-78
2023/03/31 15:03:12;;;;;;;1.10;0.90;;;12.90;99.90;;;;;;10415685;28;20200;-80
2023/03/31 15:08:17;;;;;;;1.50;1.40;;;13.00;99.90;;;;;;10415581;28;20698;-81
2023/03/31 15:13:28;;;;;;;1.90;1.37;;;13.20;99.90;;;;;;10415680;28;20204;-81
2023/03/31 15:18:32;;;;;;;1.27;1.10;;;13.20;99.90;;;;;;10381569;28;20683;-80
2023/03/31 15:23:34;;;;;;;1.23;1.20;;;13.20;99.90;;;;;;10422899;28;20204;-81
2023/03/31 15:28:42;;;;;;;2.40;1.57;;;13.20;99.90;;;;;;10419292;28;20310;-79
2023/03/31 15:33:46;;;;;;;1.53;1.30;;;13.20;99.90;;;;;;10419174;28;20240;-80
2023/03/31 15:38:56;;;;;;;2.10;1.20;;;13.30;99.90;;;;;;10425318;28;20245;-79
2023/03/31 15:44:06;;;;;;;2.30;1.43;;;13.30;99.90;;;;;;10372558;28;20256;-79
2023/03/31 15:49:20;;;;;;;3.27;1.40;;;13.40;99.90;;;;;;10386924;28;20211;-82
2023/03/31 15:54:36;;;;;;;2.13;1.70;;;13.40;99.90;;;;;;10429002;28;20221;-79
2023/03/31 15:59:47;;;;;;;4.00;1.50;;;13.40;99.90;;;;;;10430513;28;20235;-82
2023/03/31 16:04:55;;;;;;;3.00;1.67;;;13.50;99.90;;;;;;10419372;28;20236;-78
2023/03/31 16:10:01;;;;;;;2.33;1.50;;;13.50;99.90;;;;;;10438415;28;20297;-78
2023/03/31 16:15:08;;;;;;;4.90;1.50;;;13.50;99.90;;;;;;10426685;28;20190;-78
2023/03/31 16:20:20;;;;;;;3.87;1.47;;;13.60;99.90;;;;;;10409416;28;20286;-82
2023/03/31 16:25:24;;;;;;;2.93;1.57;;;13.50;99.90;;;;;;10423441;28;20253;-82
2023/03/31 16:30:34;;;;;;;2.93;1.77;;;13.50;99.90;;;;;;10406793;28;20218;-77
2023/03/31 16:35:39;;;;;;;3.93;1.80;;;13.50;99.90;;;;;;10408304;28;20186;-77
2023/03/31 16:40:44;;;;;;;3.80;1.90;;;13.50;99.90;;;;;;10423477;28;20221;-80
2023/03/31 16:45:47;;;;;;;1.57;1.47;;;13.50;99.90;;;;;;10422394;28;20222;-82
2023/03/31 16:50:53;;;;;;;1.47;1.37;;;13.30;99.90;;;;;;10424075;28;20218;-82
2023/03/31 16:55:55;;;;;;;1.83;1.50;;;13.10;99.90;;;;;;10423524;28;20187;-80
2023/03/31 17:00:58;;;;;;;1.80;1.27;;;12.90;99.90;;;;;;10423479;28;20231;-81
2023/03/31 17:06:06;;;;;;;2.77;1.20;;;12.70;99.90;;;;;;10410978;28;20554;-80
2023/03/31 17:11:11;;;;;;;1.40;1.30;;;12.70;99.90;;;;;;10425121;28;20215;-82
2023/03/31 17:16:13;;;;;;;1.33;1.23;;;12.60;99.90;;;;;;10411821;28;20193;-80
2023/03/31 17:21:17;;;;;;;2.57;1.47;;;12.60;99.90;;;;;;10441340;28;20234;-81
2023/03/31 17:26:20;;;;;;;1.40;1.30;;;12.50;99.90;;;;;;10442182;28;20216;-82
2023/03/31 17:31:26;;;;;;;1.70;1.60;;;12.50;99.90;;;;;;10441772;28;20223;-82
2023/03/31 17:36:29;;;;;;;3.20;1.77;;;12.40;99.90;;;;;;10424683;28;20194;-80
2023/03/31 17:41:31;;;;;;;1.70;1.60;;;12.30;99.90;;;;;;10426670;28;20211;-79
2023/03/31 17:46:34;;;;;;;2.60;1.90;;;12.20;99.90;;;;;;10419026;28;20690;-80
2023/03/31 17:51:37;;;;;;;1.90;1.60;;;12.20;99.90;;;;;;10418654;28;20215;-80
2023/03/31 17:56:40;;;;;;;3.97;3.27;;;12.20;99.90;;;;;;10417197;28;20726;-80
2023/03/31 18:01:42;;;;;;;4.20;2.03;;;12.20;99.90;;;;;;10417772;28;20218;-80
2023/03/31 18:06:47;;;;;;;2.87;2.20;;;12.20;99.90;;;;;;10419449;28;20229;-80
2023/03/31 18:11:50;;;;;;;3.40;2.10;;;12.20;99.90;;;;;;10425848;28;20271;-81
2023/03/31 18:16:52;;;;;;;1.80;1.70;;;12.20;99.90;;;;;;10427190;28;20741;-79
2023/03/31 18:21:56;;;;;;;7.23;4.00;;;12.20;99.90;;;;;;10430701;28;20253;-81
2023/03/31 18:26:58;;;;;;;8.13;4.20;;;12.10;99.90;;;;;;10431857;28;20301;-78
2023/03/31 18:32:00;;;;;;;3.43;2.67;;;12.10;99.90;;;;;;10429796;28;20215;-79
2023/03/31 18:37:04;;;;;;;2.90;2.30;;;12.10;99.90;;;;;;10419930;28;20179;-82
2023/03/31 18:42:06;;;;;;;5.50;2.90;;;12.10;99.90;;;;;;10426838;28;20210;-80
2023/03/31 18:47:09;;;;;;;3.27;2.27;;;12.00;99.90;;;;;;10427847;28;20218;-80
2023/03/31 18:52:12;;;;;;;3.43;2.00;;;12.00;99.90;;;;;;10422911;28;20245;-79
2023/03/31 18:57:14;;;;;;;2.43;2.10;;;11.90;99.90;;;;;;10417048;28;20195;-79
2023/03/31 19:02:16;;;;;;;2.30;2.03;;;11.90;99.90;;;;;;10415279;28;20245;-80
2023/03/31 19:07:20;;;;;;;1.90;1.80;;;11.80;99.90;;;;;;10385825;28;20210;-79
2023/03/31 19:12:22;;;;;;;2.70;2.47;;;11.90;99.90;;;;;;10433068;28;20217;-80
2023/03/31 19:17:24;;;;;;;5.83;2.23;;;11.80;99.90;;;;;;10427363;28;20190;-79
2023/03/31 19:22:28;;;;;;;5.10;2.57;;;11.80;99.90;;;;;;10469988;28;20222;-80
2023/03/31 19:27:30;;;;;;;5.97;3.23;;;11.80;99.90;;;;;;10430895;28;20214;-80
2023/03/31 19:32:33;;;;;;;2.77;2.57;;;11.80;99.90;;;;;;10423511;28;20790;-81
2023/03/31 19:37:37;;;;;;;3.67;2.13;;;11.80;99.90;;;;;;10401049;28;20282;-79
2023/03/31 19:42:40;;;;;;;2.90;2.30;;;11.80;99.90;;;;;;10419690;28;20225;-79
2023/03/31 19:47:42;;;;;;;2.37;2.07;;;11.80;99.90;;;;;;10416757;28;20242;-78
2023/03/31 19:52:46;;;;;;;3.60;2.40;;;11.80;99.90;;;;;;10400487;28;20641;-80
2023/03/31 19:57:48;;;;;;;3.17;2.63;;;11.80;99.90;;;;;;10402192;28;20190;-80
2023/03/31 20:02:50;;;;;;;7.40;3.03;;;11.70;99.90;;;;;;10415767;28;20198;-79
2023/03/31 20:07:54;;;;;;;3.20;2.50;;;11.80;99.90;;;;;;10415490;28;20410;-79
2023/03/31 20:12:56;;;;;;;4.17;3.10;;;11.70;99.90;;;;;;10419699;28;20198;-79
2023/03/31 20:17:58;;;;;;;3.23;2.60;;;11.80;99.90;;;;;;10416777;28;20718;-79
2023/03/31 20:23:02;;;;;;;2.40;2.20;;;11.80;99.90;;;;;;10418442;28;20194;-80
2023/03/31 20:28:05;;;;;;;3.70;2.10;;;11.80;99.90;;;;;;10401125;28;20728;-79
2023/03/31 20:33:07;;;;;;;3.40;2.50;;;11.90;99.90;;;;;;10419529;28;20206;-79
2023/03/31 20:38:10;;;;;;;3.63;2.43;;;11.90;99.90;;;;;;10397680;28;20250;-81
2023/03/31 20:43:12;;;;;;;6.03;3.30;;;11.70;99.90;;;;;;10415976;28;20218;-80
2023/03/31 20:48:14;;;;;;;2.50;2.30;;;11.60;99.90;;;;;;10426771;28;20218;-80
2023/03/31 20:53:18;;;;;;;3.87;2.43;;;11.60;99.90;;;;;;10423350;28;20234;-78
2023/03/31 20:58:20;;;;;;;5.00;2.87;;;11.60;99.90;;;;;;10408828;28;20260;-77
2023/03/31 21:03:22;;;;;;;2.63;2.43;;;11.60;99.90;;;;;;10404067;28;20225;-78
2023/03/31 21:08:26;;;;;;;3.00;2.50;;;11.60;99.90;;;;;;10422944;28;20416;-78
2023/03/31 21:13:30;;;;;;;3.90;2.70;;;11.60;99.90;;;;;;10423608;28;20194;-79
2023/03/31 21:18:36;;;;;;;2.23;2.03;;;11.70;99.90;;;;;;10426950;28;20581;-79
2023/03/31 21:23:40;;;;;;;4.30;2.70;;;11.60;99.90;;;;;;10407393;28;20210;-79
2023/03/31 21:28:42;;;;;;;4.30;2.30;;;11.60;99.90;;;;;;10423651;28;20326;-78
2023/03/31 21:33:46;;;;;;;3.10;2.30;;;11.50;99.90;;;;;;10427109;28;20207;-77
2023/03/31 21:38:51;;;;;;;7.30;4.50;;;11.60;99.90;;;;;;10426032;28;20616;-79
2023/03/31 21:43:54;;;;;;;3.73;3.40;;;11.50;99.90;;;;;;10427152;28;20206;-78
2023/03/31 21:48:56;;;;;;;3.67;2.40;;;11.40;99.90;;;;;;10423503;28;20230;-79
2023/03/31 21:54:00;;;;;;;3.53;2.50;;;11.40;99.90;;;;;;10423895;28;20198;-77
2023/03/31 21:59:03;;;;;;;2.77;2.40;;;11.20;99.90;;;;;;10423532;28;20230;-78
2023/03/31 22:04:05;;;;;;;3.97;3.00;;;11.00;99.90;;;;;;10422895;28;20228;-79
2023/03/31 22:09:08;;;;;;;5.60;2.93;;;10.90;99.90;;;;;;10422129;28;20256;-77
2023/03/31 22:14:11;;;;;;;3.10;2.63;;;10.80;99.90;;;;;;10421540;28;20221;-79
2023/03/31 22:19:13;;;;;;;3.47;3.03;;;10.70;99.90;;;;;;10421271;28;20766;-79
2023/03/31 22:24:16;;;;;;;4.20;2.80;;;10.50;99.90;;;;;;10421854;28;20198;-78
2023/03/31 22:29:18;;;;;;;4.20;3.40;;;10.40;99.90;;;;;;10419497;28;20225;-79
2023/03/31 22:34:20;;;;;;;8.00;5.10;;;10.40;99.90;;;;;;10420007;28;20260;-77
2023/03/31 22:39:24;;;;;;;4.90;3.30;;;10.50;99.90;;;;;;10418795;28;20218;-78
2023/03/31 22:44:26;;;;;;;2.70;2.50;;;10.50;99.90;;;;;;10406276;28;20195;-77
2023/03/31 22:49:28;;;;;;;2.20;2.10;;;10.50;99.90;;;;;;10422849;28;20250;-78
2023/03/31 22:54:32;;;;;;;2.33;2.17;;;10.40;99.90;;;;;;10421386;28;20198;-77
2023/03/31 22:59:35;;;;;;;3.03;2.40;;;10.50;99.90;;;;;;10423726;28;20211;-77
2023/03/31 23:04:37;;;;;;;2.30;2.10;;;10.60;99.90;;;;;;10422325;28;20220;-77
2023/03/31 23:09:40;;;;;;;2.00;1.90;;;10.50;99.90;;;;;;10404365;28;20222;-77
2023/03/31 23:14:42;;;;;;;2.60;2.40;;;10.60;99.90;;;;;;10420897;28;20201;-78
2023/03/31 23:19:46;;;;;;;2.33;2.23;;;10.70;99.90;;;;;;10417663;28;20749;-80
2023/03/31 23:24:50;;;;;;;2.00;1.90;;;10.70;99.90;;;;;;10420834;28;20844;-78
2023/03/31 23:29:52;;;;;;;2.90;2.70;;;10.80;99.90;;;;;;10402348;28;20226;-78
2023/03/31 23:34:54;;;;;;;2.40;2.17;;;10.70;99.90;;;;;;10403376;28;20214;-77
2023/03/31 23:39:58;;;;;;;2.10;2.00;;;10.70;99.90;;;;;;10418261;28;20252;-79
2023/03/31 23:45:00;;;;;;;2.60;1.83;;;10.80;99.90;;;;;;10419848;28;20259;-78
2023/03/31 23:50:02;;;;;;;2.33;2.20;;;10.70;99.90;;;;;;10398925;28;20257;-79
2023/03/31 23:55:06;;;;;;;1.20;1.10;;;10.70;99.90;;;;;;10447254;28;20194;-79
